sensor_id;sensor_type;location;lat;lon;timestamp;pressure;altitude;pressure_sealevel;temperature;humidity
43681;BME280;29281;50.356;30.894;2022-12-13T11:04:31;99399.34;;;2.57;100.00
43681;BME280;29281;50.356;30.894;2022-12-13T11:05:36;99397.78;;;2.53;100.00
43681;BME280;29281;50.356;30.894;2022-12-13T11:06:43;99398.37;;;2.41;100.00
43681;BME280;29281;50.356;30.894;2022-12-13T11:07:49;99403.30;;;2.47;100.00
43681;BME280;29281;50.356;30.894;2022-12-13T11:08:53;99395.94;;;2.55;100.00
43681;BME280;29281;50.356;30.894;2022-12-13T11:11:42;99394.42;;;2.68;100.00
43681;BME280;29281;50.356;30.894;2022-12-13T11:12:49;99399.38;;;2.74;100.00
43681;BME280;29281;50.356;30.894;2022-12-13T11:13:57;99400.77;;;2.81;100.00
43681;BME280;29281;50.356;30.894;2022-12-13T11:15:05;99396.01;;;2.90;100.00
43681;BME280;29281;50.356;30.894;2022-12-13T11:16:19;99400.08;;;2.95;100.00
43681;BME280;29281;50.356;30.894;2022-12-13T11:17:24;99403.97;;;3.05;100.00
43681;BME280;29281;50.356;30.894;2022-12-13T11:18:33;99401.16;;;3.08;100.00
43681;BME280;29281;50.356;30.894;2022-12-13T11:19:46;99398.00;;;2.85;100.00
43681;BME280;29281;50.356;30.894;2022-12-13T11:20:59;99396.27;;;2.66;100.00
43681;BME280;29281;50.356;30.894;2022-12-13T11:22:06;99395.41;;;2.66;100.00
43681;BME280;29281;50.356;30.894;2022-12-13T11:24:33;99387.87;;;2.60;100.00
43681;BME280;29281;50.356;30.894;2022-12-13T11:25:42;99392.72;;;2.67;100.00
43681;BME280;29281;50.356;30.894;2022-12-13T11:26:52;99383.02;;;2.69;100.00
43681;BME280;29281;50.356;30.894;2022-12-13T11:29:43;99398.03;;;2.66;99.47
43681;BME280;29281;50.356;30.894;2022-12-13T11:32:26;99391.05;;;2.47;100.00
43681;BME280;29281;50.356;30.894;2022-12-13T11:37:51;99400.97;;;2.60;100.00
43681;BME280;29281;50.356;30.894;2022-12-13T11:41:18;99398.52;;;2.38;100.00
43681;BME280;29281;50.356;30.894;2022-12-13T11:42:40;99390.66;;;2.19;100.00
43681;BME280;29281;50.356;30.894;2022-12-13T11:46:16;99396.17;;;2.32;100.00
43681;BME280;29281;50.356;30.894;2022-12-13T11:47:25;99395.52;;;2.45;100.00
43681;BME280;29281;50.356;30.894;2022-12-13T11:48:44;99392.54;;;2.53;100.00
43681;BME280;29281;50.356;30.894;2022-12-13T11:49:49;99396.08;;;2.52;100.00
43681;BME280;29281;50.356;30.894;2022-12-13T11:50:56;99401.67;;;2.44;100.00
43681;BME280;29281;50.356;30.894;2022-12-13T11:53:30;99385.03;;;2.45;100.00
43681;BME280;29281;50.356;30.894;2022-12-13T11:56:06;99394.10;;;2.57;100.00
43681;BME280;29281;50.356;30.894;2022-12-13T11:57:28;99400.73;;;2.64;100.00
43681;BME280;29281;50.356;30.894;2022-12-13T12:01:14;99389.50;;;2.79;99.66
43681;BME280;29281;50.356;30.894;2022-12-13T12:02:25;99387.48;;;2.67;99.85
43681;BME280;29281;50.356;30.894;2022-12-13T12:03:36;99389.03;;;2.71;100.00
43681;BME280;29281;50.356;30.894;2022-12-13T12:04:54;99383.44;;;2.60;99.81
43681;BME280;29281;50.356;30.894;2022-12-13T12:07:37;99393.91;;;2.43;99.78
43681;BME280;29281;50.356;30.894;2022-12-13T12:08:44;99388.81;;;2.40;100.00
43681;BME280;29281;50.356;30.894;2022-12-13T12:09:56;99388.48;;;2.29;100.00
43681;BME280;29281;50.356;30.894;2022-12-13T12:11:13;99393.91;;;2.43;100.00
43681;BME280;29281;50.356;30.894;2022-12-13T12:12:36;99394.52;;;2.48;100.00
43681;BME280;29281;50.356;30.894;2022-12-13T12:13:43;99390.84;;;2.52;100.00
43681;BME280;29281;50.356;30.894;2022-12-13T12:15:09;99385.73;;;2.49;100.00
43681;BME280;29281;50.356;30.894;2022-12-13T12:16:36;99390.86;;;2.33;100.00
43681;BME280;29281;50.356;30.894;2022-12-13T12:17:38;99381.09;;;2.18;100.00
43681;BME280;29281;50.356;30.894;2022-12-13T12:18:45;99384.43;;;2.03;100.00
43681;BME280;29281;50.356;30.894;2022-12-13T12:19:55;99382.25;;;2.13;100.00
43681;BME280;29281;50.356;30.894;2022-12-13T12:21:34;99386.00;;;2.07;100.00
43681;BME280;29281;50.356;30.894;2022-12-13T12:22:52;99387.39;;;2.14;100.00
43681;BME280;29281;50.356;30.894;2022-12-13T12:26:24;99396.95;;;2.15;100.00
43681;BME280;29281;50.356;30.894;2022-12-13T12:27:42;99394.56;;;2.10;100.00
43681;BME280;29281;50.356;30.894;2022-12-13T12:28:58;99391.95;;;2.10;100.00
43681;BME280;29281;50.356;30.894;2022-12-13T12:30:25;99398.51;;;2.00;100.00
43681;BME280;29281;50.356;30.894;2022-12-13T12:31:37;99400.99;;;2.03;100.00
43681;BME280;29281;50.356;30.894;2022-12-13T12:34:24;99402.19;;;2.15;100.00
43681;BME280;29281;50.356;30.894;2022-12-13T12:37:25;99394.13;;;2.20;100.00
43681;BME280;29281;50.356;30.894;2022-12-13T12:40:00;99394.50;;;2.12;100.00
43681;BME280;29281;50.356;30.894;2022-12-13T12:50:34;99393.98;;;1.26;100.00
43681;BME280;29281;50.356;30.894;2022-12-13T12:54:41;99388.98;;;1.21;100.00
43681;BME280;29281;50.356;30.894;2022-12-13T12:57:27;99392.09;;;1.29;100.00
43681;BME280;29281;50.356;30.894;2022-12-13T12:58:50;99392.09;;;1.29;100.00
43681;BME280;29281;50.356;30.894;2022-12-13T13:00:02;99392.02;;;1.11;100.00
43681;BME280;29281;50.356;30.894;2022-12-13T13:01:21;99389.88;;;1.00;100.00
43681;BME280;29281;50.356;30.894;2022-12-13T13:02:26;99394.03;;;0.84;100.00
43681;BME280;29281;50.356;30.894;2022-12-13T13:03:31;99395.34;;;0.94;100.00
43681;BME280;29281;50.356;30.894;2022-12-13T13:04:42;99388.95;;;1.01;100.00
43681;BME280;29281;50.356;30.894;2022-12-13T13:05:59;99396.13;;;0.96;100.00
43681;BME280;29281;50.356;30.894;2022-12-13T13:08:31;99392.56;;;0.77;100.00
43681;BME280;29281;50.356;30.894;2022-12-13T13:09:34;99390.11;;;0.52;100.00
43681;BME280;29281;50.356;30.894;2022-12-13T13:10:40;99391.58;;;0.59;100.00
43681;BME280;29281;50.356;30.894;2022-12-13T13:11:47;99385.11;;;0.67;100.00
43681;BME280;29281;50.356;30.894;2022-12-13T13:12:54;99387.49;;;0.74;100.00
43681;BME280;29281;50.356;30.894;2022-12-13T13:14:04;99390.69;;;0.80;100.00
43681;BME280;29281;50.356;30.894;2022-12-13T13:16:39;99386.45;;;0.34;100.00
43681;BME280;29281;50.356;30.894;2022-12-13T13:17:44;99384.41;;;0.42;100.00
43681;BME280;29281;50.356;30.894;2022-12-13T13:18:51;99384.20;;;0.47;100.00
43681;BME280;29281;50.356;30.894;2022-12-13T13:21:33;99391.37;;;0.20;100.00
43681;BME280;29281;50.356;30.894;2022-12-13T13:22:37;99390.46;;;0.21;100.00
43681;BME280;29281;50.356;30.894;2022-12-13T13:23:42;99404.05;;;0.07;100.00
43681;BME280;29281;50.356;30.894;2022-12-13T13:26:11;99391.90;;;0.06;100.00
43681;BME280;29281;50.356;30.894;2022-12-13T13:27:28;99398.83;;;0.07;100.00
43681;BME280;29281;50.356;30.894;2022-12-13T13:28:29;99398.39;;;-0.04;100.00
43681;BME280;29281;50.356;30.894;2022-12-13T14:28:54;99403.14;;;-0.39;100.00
43681;BME280;29281;50.356;30.894;2022-12-13T14:29:58;99402.88;;;-0.31;100.00
43681;BME280;29281;50.356;30.894;2022-12-13T14:31:23;99400.27;;;-0.31;100.00
43681;BME280;29281;50.356;30.894;2022-12-13T14:32:30;99404.84;;;-0.38;100.00
43681;BME280;29281;50.356;30.894;2022-12-13T14:33:34;99400.48;;;-0.37;100.00
43681;BME280;29281;50.356;30.894;2022-12-13T14:34:39;99406.45;;;-0.33;100.00
43681;BME280;29281;50.356;30.894;2022-12-13T14:35:49;99409.66;;;-0.27;100.00
43681;BME280;29281;50.356;30.894;2022-12-13T14:37:00;99408.81;;;-0.27;100.00
43681;BME280;29281;50.356;30.894;2022-12-13T14:38:05;99405.40;;;-0.29;100.00
43681;BME280;29281;50.356;30.894;2022-12-13T14:39:15;99411.02;;;-0.40;100.00
43681;BME280;29281;50.356;30.894;2022-12-13T14:40:35;99407.91;;;-0.26;100.00
43681;BME280;29281;50.356;30.894;2022-12-13T14:41:47;99402.31;;;-0.16;100.00
43681;BME280;29281;50.356;30.894;2022-12-13T14:42:52;99404.34;;;-0.24;100.00
43681;BME280;29281;50.356;30.894;2022-12-13T14:44:14;99401.63;;;-0.21;100.00
43681;BME280;29281;50.356;30.894;2022-12-13T14:45:24;99401.03;;;-0.29;100.00
43681;BME280;29281;50.356;30.894;2022-12-13T14:46:28;99409.85;;;-0.31;100.00
43681;BME280;29281;50.356;30.894;2022-12-13T14:47:32;99404.73;;;-0.34;100.00
43681;BME280;29281;50.356;30.894;2022-12-13T14:48:44;99408.86;;;-0.29;100.00
43681;BME280;29281;50.356;30.894;2022-12-13T14:49:52;99411.31;;;-0.24;100.00
43681;BME280;29281;50.356;30.894;2022-12-13T14:50:56;99413.02;;;-0.23;100.00
43681;BME280;29281;50.356;30.894;2022-12-13T14:52:03;99415.52;;;-0.20;100.00
43681;BME280;29281;50.356;30.894;2022-12-13T14:53:17;99420.90;;;-0.25;100.00
43681;BME280;29281;50.356;30.894;2022-12-13T14:54:20;99411.47;;;-0.29;100.00
43681;BME280;29281;50.356;30.894;2022-12-13T14:55:30;99409.77;;;-0.30;100.00
43681;BME280;29281;50.356;30.894;2022-12-13T14:56:52;99413.87;;;-0.23;100.00
43681;BME280;29281;50.356;30.894;2022-12-13T14:57:50;99412.11;;;-0.22;100.00
43681;BME280;29281;50.356;30.894;2022-12-13T14:58:53;99418.23;;;-0.23;100.00
43681;BME280;29281;50.356;30.894;2022-12-13T15:00:20;99419.25;;;-0.27;100.00
43681;BME280;29281;50.356;30.894;2022-12-13T15:01:29;99407.53;;;-0.16;100.00
43681;BME280;29281;50.356;30.894;2022-12-13T15:02:32;99407.39;;;-0.13;100.00
43681;BME280;29281;50.356;30.894;2022-12-13T15:03:36;99406.44;;;-0.10;100.00
43681;BME280;29281;50.356;30.894;2022-12-13T15:04:40;99413.09;;;-0.02;100.00
43681;BME280;29281;50.356;30.894;2022-12-13T15:05:44;99415.06;;;-0.08;100.00
43681;BME280;29281;50.356;30.894;2022-12-13T15:08:19;99419.59;;;-0.13;100.00
43681;BME280;29281;50.356;30.894;2022-12-13T15:09:22;99415.63;;;-0.23;100.00
43681;BME280;29281;50.356;30.894;2022-12-13T15:10:38;99413.57;;;-0.15;100.00
43681;BME280;29281;50.356;30.894;2022-12-13T15:11:40;99411.26;;;-0.23;100.00
43681;BME280;29281;50.356;30.894;2022-12-13T15:12:44;99411.31;;;-0.24;100.00
43681;BME280;29281;50.356;30.894;2022-12-13T15:13:49;99409.45;;;-0.21;100.00
43681;BME280;29281;50.356;30.894;2022-12-13T15:14:58;99411.10;;;-0.18;100.00
43681;BME280;29281;50.356;30.894;2022-12-13T15:16:17;99406.30;;;-0.30;100.00
43681;BME280;29281;50.356;30.894;2022-12-13T15:17:31;99411.52;;;-0.30;100.00
43681;BME280;29281;50.356;30.894;2022-12-13T15:18:37;99404.50;;;-0.28;100.00
43681;BME280;29281;50.356;30.894;2022-12-13T15:19:41;99412.52;;;-0.33;100.00
43681;BME280;29281;50.356;30.894;2022-12-13T15:22:12;99408.25;;;-0.12;100.00
43681;BME280;29281;50.356;30.894;2022-12-13T15:23:31;99406.65;;;-0.40;100.00
43681;BME280;29281;50.356;30.894;2022-12-13T15:24:44;99416.73;;;-0.54;100.00
43681;BME280;29281;50.356;30.894;2022-12-13T15:26:06;99413.97;;;-0.49;100.00
43681;BME280;29281;50.356;30.894;2022-12-13T15:27:11;99409.31;;;-0.41;100.00
43681;BME280;29281;50.356;30.894;2022-12-13T15:28:16;99409.95;;;-0.34;100.00
43681;BME280;29281;50.356;30.894;2022-12-13T15:29:23;99407.40;;;-0.36;100.00
43681;BME280;29281;50.356;30.894;2022-12-13T15:30:30;99409.91;;;-0.33;100.00
43681;BME280;29281;50.356;30.894;2022-12-13T15:31:34;99408.86;;;-0.29;100.00
43681;BME280;29281;50.356;30.894;2022-12-13T15:33:00;99413.92;;;-0.24;100.00
43681;BME280;29281;50.356;30.894;2022-12-13T15:33:45;99417.28;;;-0.21;100.00
43681;BME280;29281;50.356;30.894;2022-12-13T15:34:52;99410.30;;;-0.20;100.00
43681;BME280;29281;50.356;30.894;2022-12-13T15:36:18;99415.17;;;-0.34;100.00
43681;BME280;29281;50.356;30.894;2022-12-13T15:37:28;99414.22;;;-0.32;100.00
43681;BME280;29281;50.356;30.894;2022-12-13T15:38:32;99418.45;;;-0.29;100.00
43681;BME280;29281;50.356;30.894;2022-12-13T15:39:39;99421.05;;;-0.29;100.00
43681;BME280;29281;50.356;30.894;2022-12-13T15:40:47;99417.28;;;-0.21;100.00
43681;BME280;29281;50.356;30.894;2022-12-13T15:41:54;99418.98;;;-0.20;100.00
43681;BME280;29281;50.356;30.894;2022-12-13T15:42:57;99419.19;;;-0.26;100.00
43681;BME280;29281;50.356;30.894;2022-12-13T15:45:25;99411.77;;;-0.13;100.00
43681;BME280;29281;50.356;30.894;2022-12-13T15:46:34;99412.06;;;-0.21;100.00
43681;BME280;29281;50.356;30.894;2022-12-13T15:47:43;99415.97;;;-0.09;100.00
43681;BME280;29281;50.356;30.894;2022-12-13T15:48:48;99407.59;;;-0.17;100.00
43681;BME280;29281;50.356;30.894;2022-12-13T15:49:57;99412.06;;;-0.21;100.00
43681;BME280;29281;50.356;30.894;2022-12-13T15:51:11;99412.11;;;-0.22;100.00
43681;BME280;29281;50.356;30.894;2022-12-13T15:53:34;99415.63;;;-0.23;100.00
43681;BME280;29281;50.356;30.894;2022-12-13T15:54:40;99419.03;;;-0.21;100.00
43681;BME280;29281;50.356;30.894;2022-12-13T15:55:44;99415.70;;;-0.02;100.00
43681;BME280;29281;50.356;30.894;2022-12-13T15:58:25;99416.08;;;-0.12;100.00
43681;BME280;29281;50.356;30.894;2022-12-13T15:59:29;99413.41;;;-0.11;100.00
43681;BME280;29281;50.356;30.894;2022-12-13T16:00:34;99425.23;;;-0.01;100.00
43681;BME280;29281;50.356;30.894;2022-12-13T16:01:37;99424.55;;;-0.06;100.00
43681;BME280;29281;50.356;30.894;2022-12-13T16:03:05;99411.37;;;-0.26;100.00
43681;BME280;29281;50.356;30.894;2022-12-13T16:04:23;99421.13;;;-0.08;100.00
43681;BME280;29281;50.356;30.894;2022-12-13T16:05:32;99420.69;;;-0.19;100.00
43681;BME280;29281;50.356;30.894;2022-12-13T16:06:37;99416.53;;;-0.24;100.00
43681;BME280;29281;50.356;30.894;2022-12-13T16:07:41;99422.81;;;-0.30;100.00
43681;BME280;29281;50.356;30.894;2022-12-13T16:08:48;99430.88;;;-0.36;100.00
43681;BME280;29281;50.356;30.894;2022-12-13T16:09:53;99422.66;;;-0.25;100.00
43681;BME280;29281;50.356;30.894;2022-12-13T16:10:59;99420.73;;;-0.20;100.00
43681;BME280;29281;50.356;30.894;2022-12-13T16:12:05;99418.58;;;-0.09;100.00
43681;BME280;29281;50.356;30.894;2022-12-13T16:13:15;99421.77;;;-0.01;100.00
43681;BME280;29281;50.356;30.894;2022-12-13T16:14:39;99422.37;;;0.06;100.00
43681;BME280;29281;50.356;30.894;2022-12-13T16:15:47;99415.70;;;-0.02;100.00
43681;BME280;29281;50.356;30.894;2022-12-13T16:16:53;99420.39;;;-0.11;100.00
43681;BME280;29281;50.356;30.894;2022-12-13T16:18:12;99419.16;;;-0.01;100.00
43681;BME280;29281;50.356;30.894;2022-12-13T16:19:14;99416.61;;;-0.03;100.00
43681;BME280;29281;50.356;30.894;2022-12-13T16:20:21;99417.52;;;-0.04;100.00
43681;BME280;29281;50.356;30.894;2022-12-13T16:21:26;99416.61;;;-0.03;100.00
43681;BME280;29281;50.356;30.894;2022-12-13T16:22:29;99415.50;;;0.03;100.00
43681;BME280;29281;50.356;30.894;2022-12-13T16:23:34;99408.25;;;0.11;100.00
43681;BME280;29281;50.356;30.894;2022-12-13T16:24:37;99410.59;;;-0.05;100.00
43681;BME280;29281;50.356;30.894;2022-12-13T16:25:43;99411.49;;;-0.06;100.00
43681;BME280;29281;50.356;30.894;2022-12-13T16:26:47;99414.95;;;-0.05;100.00
43681;BME280;29281;50.356;30.894;2022-12-13T16:27:52;99413.75;;;0.04;100.00
43681;BME280;29281;50.356;30.894;2022-12-13T16:28:55;99418.11;;;0.03;100.00
43681;BME280;29281;50.356;30.894;2022-12-13T16:30:26;99414.48;;;0.07;100.00
43681;BME280;29281;50.356;30.894;2022-12-13T16:31:30;99412.40;;;-0.07;100.00
43681;BME280;29281;50.356;30.894;2022-12-13T16:32:35;99416.98;;;-0.13;100.00
43681;BME280;29281;50.356;30.894;2022-12-13T16:33:41;99411.05;;;-0.17;100.00
43681;BME280;29281;50.356;30.894;2022-12-13T16:34:45;99411.31;;;-0.24;100.00
43681;BME280;29281;50.356;30.894;2022-12-13T16:35:50;99413.81;;;-0.21;100.00
43681;BME280;29281;50.356;30.894;2022-12-13T16:36:54;99408.81;;;-0.27;100.00
43681;BME280;29281;50.356;30.894;2022-12-13T16:37:58;99405.19;;;-0.23;100.00
43681;BME280;29281;50.356;30.894;2022-12-13T16:39:05;99411.37;;;-0.26;100.00
43681;BME280;29281;50.356;30.894;2022-12-13T16:40:23;99407.64;;;-0.19;100.00
43681;BME280;29281;50.356;30.894;2022-12-13T16:41:27;99412.97;;;-0.22;100.00
43681;BME280;29281;50.356;30.894;2022-12-13T16:42:31;99409.50;;;-0.22;100.00
43681;BME280;29281;50.356;30.894;2022-12-13T16:43:50;99421.14;;;-0.31;100.00
43681;BME280;29281;50.356;30.894;2022-12-13T16:44:51;99413.81;;;-0.21;100.00
43681;BME280;29281;50.356;30.894;2022-12-13T16:45:57;99419.44;;;-0.32;100.00
43681;BME280;29281;50.356;30.894;2022-12-13T16:47:08;99417.54;;;-0.28;100.00
43681;BME280;29281;50.356;30.894;2022-12-13T16:48:16;99419.99;;;-0.24;100.00
43681;BME280;29281;50.356;30.894;2022-12-13T16:49:23;99417.59;;;-0.30;100.00
43681;BME280;29281;50.356;30.894;2022-12-13T16:50:27;99418.58;;;-0.32;100.00
43681;BME280;29281;50.356;30.894;2022-12-13T16:51:31;99421.75;;;-0.24;100.00
43681;BME280;29281;50.356;30.894;2022-12-13T16:52:35;99414.13;;;-0.30;100.00
43681;BME280;29281;50.356;30.894;2022-12-13T16:53:38;99422.50;;;-0.21;100.00
43681;BME280;29281;50.356;30.894;2022-12-13T16:54:41;99420.69;;;-0.19;100.00
43681;BME280;29281;50.356;30.894;2022-12-13T16:55:47;99421.59;;;-0.20;100.00
43681;BME280;29281;50.356;30.894;2022-12-13T16:56:53;99416.81;;;-0.09;100.00
43681;BME280;29281;50.356;30.894;2022-12-13T16:58:03;99417.62;;;-0.07;100.00
43681;BME280;29281;50.356;30.894;2022-12-13T16:59:11;99418.73;;;-0.14;100.00
43681;BME280;29281;50.356;30.894;2022-12-13T17:00:13;99413.41;;;-0.11;100.00
43681;BME280;29281;50.356;30.894;2022-12-13T17:01:21;99415.17;;;-0.11;100.00
43681;BME280;29281;50.356;30.894;2022-12-13T17:02:25;99414.42;;;-0.15;100.00
43681;BME280;29281;50.356;30.894;2022-12-13T17:03:28;99412.50;;;-0.10;100.00
43681;BME280;29281;50.356;30.894;2022-12-13T17:04:33;99419.73;;;-0.16;100.00
43681;BME280;29281;50.356;30.894;2022-12-13T17:05:39;99426.56;;;-0.14;100.00
43681;BME280;29281;50.356;30.894;2022-12-13T17:06:44;99415.97;;;-0.09;100.00
43681;BME280;29281;50.356;30.894;2022-12-13T17:07:47;99418.75;;;0.10;100.00
43681;BME280;29281;50.356;30.894;2022-12-13T17:08:52;99416.30;;;0.05;100.00
43681;BME280;29281;50.356;30.894;2022-12-13T17:09:56;99419.22;;;-0.03;100.00
43681;BME280;29281;50.356;30.894;2022-12-13T17:11:00;99420.06;;;-0.02;100.00
43681;BME280;29281;50.356;30.894;2022-12-13T17:12:03;99418.11;;;0.03;100.00
43681;BME280;29281;50.356;30.894;2022-12-13T17:13:07;99421.03;;;-0.05;100.00
43681;BME280;29281;50.356;30.894;2022-12-13T17:14:20;99413.66;;;-0.17;100.00
43681;BME280;29281;50.356;30.894;2022-12-13T17:15:23;99417.13;;;-0.16;100.00
43681;BME280;29281;50.356;30.894;2022-12-13T17:16:30;99418.79;;;-0.15;100.00
43681;BME280;29281;50.356;30.894;2022-12-13T17:17:42;99421.13;;;-0.08;100.00
43681;BME280;29281;50.356;30.894;2022-12-13T17:18:46;99417.78;;;-0.11;100.00
43681;BME280;29281;50.356;30.894;2022-12-13T17:19:50;99420.50;;;-0.14;100.00
43681;BME280;29281;50.356;30.894;2022-12-13T17:20:53;99426.11;;;-0.25;100.00
43681;BME280;29281;50.356;30.894;2022-12-13T17:21:58;99419.03;;;-0.21;100.00
43681;BME280;29281;50.356;30.894;2022-12-13T17:23:02;99418.29;;;-0.25;100.00
43681;BME280;29281;50.356;30.894;2022-12-13T17:24:08;99418.08;;;-0.19;100.00
43681;BME280;29281;50.356;30.894;2022-12-13T17:25:13;99419.48;;;-0.10;100.00
43681;BME280;29281;50.356;30.894;2022-12-13T17:26:17;99428.33;;;-0.14;100.00
43681;BME280;29281;50.356;30.894;2022-12-13T17:27:19;99420.73;;;-0.20;100.00
43681;BME280;29281;50.356;30.894;2022-12-13T17:28:22;99419.19;;;-0.26;100.00
43681;BME280;29281;50.356;30.894;2022-12-13T17:29:26;99429.31;;;-0.17;100.00
43681;BME280;29281;50.356;30.894;2022-12-13T17:30:30;99422.95;;;-0.10;100.00
43681;BME280;29281;50.356;30.894;2022-12-13T17:31:37;99427.47;;;-0.15;100.00
43681;BME280;29281;50.356;30.894;2022-12-13T17:32:41;99432.59;;;-0.12;100.00
43681;BME280;29281;50.356;30.894;2022-12-13T17:33:45;99425.50;;;-0.08;100.00
43681;BME280;29281;50.356;30.894;2022-12-13T17:34:52;99432.64;;;-0.13;100.00
43681;BME280;29281;50.356;30.894;2022-12-13T17:35:55;99427.16;;;-0.06;100.00
43681;BME280;29281;50.356;30.894;2022-12-13T17:36:59;99429.98;;;-0.12;100.00
43681;BME280;29281;50.356;30.894;2022-12-13T17:38:04;99436.10;;;-0.13;100.00
43681;BME280;29281;50.356;30.894;2022-12-13T17:39:08;99426.70;;;-0.17;100.00
43681;BME280;29281;50.356;30.894;2022-12-13T17:40:12;99428.97;;;-0.08;100.00
43681;BME280;29281;50.356;30.894;2022-12-13T17:41:16;99433.17;;;-0.04;100.00
43681;BME280;29281;50.356;30.894;2022-12-13T17:42:21;99429.70;;;-0.04;100.00
43681;BME280;29281;50.356;30.894;2022-12-13T17:43:28;99437.91;;;-0.15;100.00
43681;BME280;29281;50.356;30.894;2022-12-13T17:44:34;99436.73;;;-0.06;100.00
43681;BME280;29281;50.356;30.894;2022-12-13T17:45:36;99430.51;;;-0.02;100.00
43681;BME280;29281;50.356;30.894;2022-12-13T17:46:42;99434.73;;;0.00;100.00
43681;BME280;29281;50.356;30.894;2022-12-13T17:47:47;99431.16;;;0.03;100.00
43681;BME280;29281;50.356;30.894;2022-12-13T17:48:51;99433.17;;;-0.04;100.00
43681;BME280;29281;50.356;30.894;2022-12-13T17:49:54;99432.02;;;0.04;100.00
43681;BME280;29281;50.356;30.894;2022-12-13T17:50:57;99434.23;;;-0.09;100.00
43681;BME280;29281;50.356;30.894;2022-12-13T17:52:01;99440.41;;;-0.12;100.00
43681;BME280;29281;50.356;30.894;2022-12-13T17:53:05;99441.21;;;-0.10;100.00
43681;BME280;29281;50.356;30.894;2022-12-13T17:54:12;99439.56;;;-0.12;100.00
43681;BME280;29281;50.356;30.894;2022-12-13T17:55:16;99436.52;;;0.00;100.00
43681;BME280;29281;50.356;30.894;2022-12-13T17:56:21;99440.81;;;0.01;100.00
43681;BME280;29281;50.356;30.894;2022-12-13T17:57:26;99439.38;;;0.16;100.00
43681;BME280;29281;50.356;30.894;2022-12-13T17:58:30;99439.58;;;0.11;100.00
43681;BME280;29281;50.356;30.894;2022-12-13T17:59:36;99441.88;;;0.19;100.00
43681;BME280;29281;50.356;30.894;2022-12-13T18:00:45;99441.55;;;0.28;100.00
43681;BME280;29281;50.356;30.894;2022-12-13T18:01:50;99434.05;;;0.19;100.00
43681;BME280;29281;50.356;30.894;2022-12-13T18:02:53;99457.50;;;0.20;100.00
43681;BME280;29281;50.356;30.894;2022-12-13T18:03:58;99437.08;;;0.08;100.00
43681;BME280;29281;50.356;30.894;2022-12-13T18:05:01;99443.15;;;0.09;100.00
43681;BME280;29281;50.356;30.894;2022-12-13T18:06:04;99446.56;;;0.11;100.00
43681;BME280;29281;50.356;30.894;2022-12-13T18:07:08;99445.66;;;0.12;100.00
43681;BME280;29281;50.356;30.894;2022-12-13T18:08:16;99440.92;;;0.21;100.00
43681;BME280;29281;50.356;30.894;2022-12-13T18:09:19;99445.45;;;0.16;100.00
43681;BME280;29281;50.356;30.894;2022-12-13T18:10:24;99439.80;;;0.28;100.00
43681;BME280;29281;50.356;30.894;2022-12-13T18:11:29;99447.58;;;0.30;100.00
43681;BME280;29281;50.356;30.894;2022-12-13T18:12:38;99443.59;;;0.20;100.00
43681;BME280;29281;50.356;30.894;2022-12-13T18:13:43;99447.80;;;0.24;100.00
43681;BME280;29281;50.356;30.894;2022-12-13T18:14:46;99450.52;;;0.21;100.00
43681;BME280;29281;50.356;30.894;2022-12-13T18:15:52;99452.91;;;0.27;100.00
43681;BME280;29281;50.356;30.894;2022-12-13T18:16:56;99439.91;;;0.25;100.00
43681;BME280;29281;50.356;30.894;2022-12-13T18:18:00;99448.65;;;0.24;100.00
43681;BME280;29281;50.356;30.894;2022-12-13T18:43:59;99471.22;;;0.02;100.00
43681;BME280;29281;50.356;30.894;2022-12-13T18:45:03;99470.22;;;0.06;100.00
43681;BME280;29281;50.356;30.894;2022-12-13T18:46:10;99473.57;;;0.10;100.00
43681;BME280;29281;50.356;30.894;2022-12-13T18:47:17;99471.81;;;0.10;100.00
43681;BME280;29281;50.356;30.894;2022-12-13T18:48:23;99470.00;;;0.12;100.00
43681;BME280;29281;50.356;30.894;2022-12-13T18:49:27;99473.05;;;0.23;100.00
43681;BME280;29281;50.356;30.894;2022-12-13T18:50:32;99470.80;;;0.14;100.00
43681;BME280;29281;50.356;30.894;2022-12-13T18:51:36;99476.78;;;0.16;100.00
43681;BME280;29281;50.356;30.894;2022-12-13T18:52:39;99474.97;;;0.18;100.00
43681;BME280;29281;50.356;30.894;2022-12-13T18:53:44;99479.23;;;0.21;100.00
43681;BME280;29281;50.356;30.894;2022-12-13T18:54:48;99486.38;;;0.16;100.00
43681;BME280;29281;50.356;30.894;2022-12-13T18:56:02;99473.41;;;0.14;100.00
43681;BME280;29281;50.356;30.894;2022-12-13T18:57:07;99480.39;;;0.14;100.00
43681;BME280;29281;50.356;30.894;2022-12-13T18:58:11;99483.86;;;0.14;100.00
43681;BME280;29281;50.356;30.894;2022-12-13T18:59:15;99482.41;;;0.06;100.00
43681;BME280;29281;50.356;30.894;2022-12-13T19:00:18;99482.25;;;0.10;100.00
43681;BME280;29281;50.356;30.894;2022-12-13T19:01:22;99482.25;;;0.10;100.00
43681;BME280;29281;50.356;30.894;2022-12-13T19:02:31;99493.77;;;0.05;100.00
43681;BME280;29281;50.356;30.894;2022-12-13T19:03:35;99487.58;;;0.07;100.00
43681;BME280;29281;50.356;30.894;2022-12-13T19:04:40;99496.16;;;0.11;100.00
43681;BME280;29281;50.356;30.894;2022-12-13T19:05:44;99488.38;;;0.09;100.00
43681;BME280;29281;50.356;30.894;2022-12-13T19:06:47;99493.86;;;0.02;100.00
43681;BME280;29281;50.356;30.894;2022-12-13T19:07:52;99495.47;;;0.06;100.00
43681;BME280;29281;50.356;30.894;2022-12-13T19:08:56;99495.16;;;0.15;100.00
43681;BME280;29281;50.356;30.894;2022-12-13T19:09:59;99494.30;;;0.14;100.00
43681;BME280;29281;50.356;30.894;2022-12-13T19:11:03;99498.19;;;0.03;100.00
43681;BME280;29281;50.356;30.894;2022-12-13T19:12:07;99498.93;;;0.06;100.00
43681;BME280;29281;50.356;30.894;2022-12-13T19:13:12;99495.02;;;0.18;100.00
43681;BME280;29281;50.356;30.894;2022-12-13T19:14:23;99485.56;;;0.15;100.00
43681;BME280;29281;50.356;30.894;2022-12-13T19:15:29;99498.02;;;0.07;100.00
43681;BME280;29281;50.356;30.894;2022-12-13T19:16:32;99498.77;;;0.11;100.00